| time (UTC) | temp C | wind direction | speed KPH | gust KPH | rain 1hr cm | rain 24hr cm | rain mn cm | humidity % | barometer mb |
| 20260507224530 | 15 | 107 | 1.6 | 1.6 | 0.00 | 0.00 | 0.00 | 94 | 1013.9 |
| 20260507223521 | 15 | 0.0 | 0.0 | 0.00 | 0.00 | 0.00 | 93 | 1013.8 | |
| 20260507222531 | 15 | 115 | 3.2 | 4.8 | 0.00 | 0.00 | 0.00 | 93 | 1013.9 |
| 20260507221521 | 15 | 0.0 | 0.0 | 0.00 | 0.00 | 0.00 | 93 | 1013.9 | |
| 20260507220529 | 15 | 65 | 0.0 | 1.6 | 0.00 | 0.00 | 0.00 | 92 | 1013.8 |
| 20260507215521 | 15 | 38 | 3.2 | 4.8 | 0.00 | 0.00 | 0.00 | 92 | 1013.8 |
| 20260507214530 | 15 | 80 | 3.2 | 4.8 | 0.00 | 0.00 | 0.00 | 91 | 1013.6 |
| 20260507213521 | 15 | 103 | 3.2 | 4.8 | 0.00 | 0.00 | 0.00 | 91 | 1013.5 |
| 20260507212530 | 15 | 144 | 4.8 | 4.8 | 0.00 | 0.00 | 0.00 | 90 | 1013.6 |
| 20260507211537 | 15 | 141 | 3.2 | 4.8 | 0.00 | 0.00 | 0.00 | 89 | 1013.7 |
| 20260507210550 | 15 | 151 | 3.2 | 3.2 | 0.00 | 0.00 | 0.00 | 88 | 1013.8 |
| 20260507205521 | 15 | 168 | 3.2 | 4.8 | 0.00 | 0.00 | 0.00 | 87 | 1013.7 |
| 20260507204530 | 15 | 135 | 4.8 | 6.4 | 0.00 | 0.00 | 0.00 | 86 | 1013.7 |
| 20260507203601 | 16 | 104 | 3.2 | 3.2 | 0.00 | 0.00 | 0.00 | 85 | 1013.7 |
| 20260507202530 | 16 | 162 | 4.8 | 6.4 | 0.00 | 0.00 | 0.00 | 84 | 1013.8 |
| 20260507201521 | 16 | 154 | 4.8 | 6.4 | 0.00 | 0.00 | 0.00 | 83 | 1013.8 |
| 20260507200530 | 16 | 152 | 4.8 | 6.4 | 0.00 | 0.00 | 0.00 | 82 | 1013.8 |
| 20260507195521 | 16 | 152 | 1.6 | 3.2 | 0.00 | 0.00 | 0.00 | 81 | 1013.4 |
| 20260507194530 | 16 | 142 | 3.2 | 4.8 | 0.00 | 0.00 | 0.00 | 79 | 1013.4 |
| 20260507193537 | 16 | 168 | 4.8 | 4.8 | 0.00 | 0.00 | 0.00 | 77 | 1013.3 |
| 20260507192529 | 17 | 145 | 4.8 | 11.3 | 0.00 | 0.00 | 0.00 | 74 | 1013.4 |
| 20260507191521 | 17 | 147 | 4.8 | 9.7 | 0.00 | 0.00 | 0.00 | 73 | 1013.1 |
| 20260507190528 | 17 | 130 | 6.4 | 9.7 | 0.00 | 0.00 | 0.00 | 71 | 1013.2 |
| 20260507185522 | 17 | 134 | 4.8 | 9.7 | 0.00 | 0.00 | 0.00 | 69 | 1013.0 |
| 20260507184530 | 17 | 138 | 4.8 | 9.7 | 0.00 | 0.00 | 0.00 | 70 | 1012.7 |
| 20260507183541 | 18 | 133 | 8.0 | 12.9 | 0.00 | 0.00 | 0.00 | 69 | 1012.6 |
| 20260507182529 | 18 | 130 | 4.8 | 6.4 | 0.00 | 0.00 | 0.00 | 68 | 1012.5 |
| 20260507181522 | 18 | 153 | 4.8 | 4.8 | 0.00 | 0.00 | 0.00 | 69 | 1012.6 |
| 20260507180529 | 19 | 126 | 4.8 | 6.4 | 0.00 | 0.00 | 0.00 | 67 | 1012.3 |
| 20260507175522 | 20 | 133 | 4.8 | 9.7 | 0.00 | 0.00 | 0.00 | 65 | 1012.3 |
| 20260507174529 | 20 | 142 | 8.0 | 12.9 | 0.00 | 0.00 | 0.00 | 64 | 1012.1 |
| 20260507173522 | 20 | 162 | 3.2 | 6.4 | 0.00 | 0.00 | 0.00 | 64 | 1011.9 |
| 20260507172529 | 21 | 140 | 11.3 | 17.7 | 0.00 | 0.00 | 0.00 | 61 | 1011.8 |
| 20260507171522 | 21 | 139 | 9.7 | 17.7 | 0.00 | 0.00 | 0.00 | 58 | 1011.8 |
| 20260507170529 | 22 | 168 | 8.0 | 14.5 | 0.00 | 0.00 | 0.00 | 56 | 1011.7 |
| 20260507165521 | 22 | 105 | 4.8 | 9.7 | 0.00 | 0.00 | 0.00 | 49 | 1011.7 |
| 20260507164546 | 22 | 140 | 6.4 | 9.7 | 0.00 | 0.00 | 0.00 | 48 | 1011.6 |
| 20260507163541 | 22 | 171 | 9.7 | 12.9 | 0.00 | 0.00 | 0.00 | 47 | 1011.5 |
| 20260507162529 | 22 | 157 | 4.8 | 6.4 | 0.00 | 0.00 | 0.00 | 45 | 1011.5 |
| 20260507161521 | 22 | 200 | 4.8 | 9.7 | 0.00 | 0.00 | 0.00 | 46 | 1011.5 |
| 20260507160529 | 22 | 186 | 1.6 | 1.6 | 0.00 | 0.00 | 0.00 | 45 | 1011.7 |
| 20260507155521 | 23 | 178 | 1.6 | 3.2 | 0.00 | 0.00 | 0.00 | 46 | 1011.6 |
| 20260507154550 | 23 | 198 | 4.8 | 4.8 | 0.00 | 0.00 | 0.00 | 45 | 1011.6 |
| 20260507153521 | 23 | 177 | 8.0 | 11.3 | 0.00 | 0.00 | 0.00 | 44 | 1011.8 |
| 20260507152529 | 23 | 269 | 1.6 | 1.6 | 0.00 | 0.00 | 0.00 | 42 | 1011.8 |
| 20260507151522 | 22 | 94 | 6.4 | 9.7 | 0.00 | 0.00 | 0.00 | 45 | 1011.7 |
| 20260507150530 | 23 | 167 | 1.6 | 3.2 | 0.00 | 0.00 | 0.00 | 43 | 1011.8 |
| 20260507145521 | 23 | 235 | 1.6 | 3.2 | 0.00 | 0.00 | 0.00 | 43 | 1011.8 |
| 20260507144529 | 23 | 218 | 4.8 | 9.7 | 0.00 | 0.00 | 0.00 | 45 | 1011.9 |
| 20260507143522 | 25 | 321 | 1.6 | 3.2 | 0.00 | 0.00 | 0.00 | 42 | 1011.9 |
| 20260507142549 | 25 | 312 | 1.6 | 3.2 | 0.00 | 0.00 | 0.00 | 42 | 1011.9 |
| 20260507141541 | 24 | 264 | 1.6 | 4.8 | 0.00 | 0.00 | 0.00 | 43 | 1012.0 |
| 20260507140529 | 24 | 8 | 4.8 | 6.4 | 0.00 | 0.00 | 0.00 | 44 | 1012.0 |
| 20260507135521 | 23 | 304 | 1.6 | 4.8 | 0.00 | 0.00 | 0.00 | 46 | 1011.9 |
| 20260507134530 | 23 | 161 | 3.2 | 4.8 | 0.00 | 0.00 | 0.00 | 44 | 1011.9 |
| 20260507133541 | 22 | 276 | 0.0 | 1.6 | 0.00 | 0.00 | 0.00 | 49 | 1012.2 |
| 20260507132530 | 23 | 185 | 4.8 | 6.4 | 0.00 | 0.00 | 0.00 | 45 | 1012.1 |
| 20260507131522 | 23 | 211 | 3.2 | 6.4 | 0.00 | 0.00 | 0.00 | 46 | 1012.2 |
| 20260507130529 | 22 | 169 | 4.8 | 9.7 | 0.00 | 0.00 | 0.00 | 47 | 1012.1 |
| 20260507125522 | 22 | 234 | 4.8 | 9.7 | 0.00 | 0.00 | 0.00 | 45 | 1012.1 |
| 20260507124530 | 22 | 235 | 8.0 | 11.3 | 0.00 | 0.00 | 0.00 | 46 | 1012.2 |
| 20260507123521 | 22 | 218 | 3.2 | 4.8 | 0.00 | 0.00 | 0.00 | 46 | 1012.3 |
| 20260507122540 | 22 | 180 | 4.8 | 9.7 | 0.00 | 0.00 | 0.00 | 48 | 1012.2 |
| 20260507121522 | 22 | 253 | 4.8 | 9.7 | 0.00 | 0.00 | 0.00 | 48 | 1012.1 |
| 20260507120530 | 22 | 227 | 6.4 | 11.3 | 0.00 | 0.00 | 0.00 | 48 | 1012.3 |
| 20260507115522 | 22 | 200 | 4.8 | 6.4 | 0.00 | 0.00 | 0.00 | 47 | 1012.4 |
| 20260507114530 | 22 | 241 | 6.4 | 11.3 | 0.00 | 0.00 | 0.00 | 46 | 1012.5 |
| 20260507113522 | 22 | 229 | 3.2 | 4.8 | 0.00 | 0.00 | 0.00 | 48 | 1012.5 |
| 20260507112550 | 22 | 218 | 3.2 | 9.7 | 0.00 | 0.00 | 0.00 | 46 | 1012.5 |
| 20260507111521 | 21 | 223 | 3.2 | 4.8 | 0.00 | 0.00 | 0.00 | 49 | 1012.8 |
| 20260507110529 | 22 | 240 | 1.6 | 3.2 | 0.00 | 0.00 | 0.00 | 45 | 1012.8 |
| 20260507105521 | 22 | 201 | 4.8 | 6.4 | 0.00 | 0.00 | 0.00 | 49 | 1012.9 |
| 20260507104529 | 22 | 334 | 4.8 | 9.7 | 0.00 | 0.00 | 0.00 | 50 | 1013.0 |
| 20260507103522 | 22 | 232 | 3.2 | 4.8 | 0.00 | 0.00 | 0.00 | 50 | 1012.9 |
| 20260507102529 | 22 | 292 | 3.2 | 4.8 | 0.00 | 0.00 | 0.00 | 50 | 1013.2 |
| 20260507101522 | 22 | 256 | 1.6 | 3.2 | 0.00 | 0.00 | 0.00 | 51 | 1013.1 |
| 20260507100540 | 20 | 214 | 3.2 | 9.7 | 0.00 | 0.00 | 0.00 | 50 | 1013.2 |
| 20260507095523 | 21 | 232 | 4.8 | 9.7 | 0.00 | 0.00 | 0.00 | 49 | 1013.3 |
| 20260507094531 | 21 | 238 | 3.2 | 4.8 | 0.00 | 0.00 | 0.00 | 56 | 1013.3 |
| 20260507093522 | 21 | 300 | 0.0 | 1.6 | 0.00 | 0.00 | 0.00 | 58 | 1013.3 |
| 20260507092550 | 20 | 244 | 4.8 | 9.7 | 0.00 | 0.00 | 0.00 | 62 | 1013.3 |
| 20260507091522 | 20 | 218 | 4.8 | 6.4 | 0.00 | 0.03 | 0.00 | 62 | 1013.2 |
| 20260507090530 | 20 | 272 | 1.6 | 1.6 | 0.00 | 0.03 | 0.00 | 63 | 1013.3 |
| 20260507085522 | 20 | 304 | 3.2 | 3.2 | 0.00 | 0.03 | 0.00 | 64 | 1013.4 |
| 20260507084611 | 20 | 254 | 1.6 | 4.8 | 0.00 | 0.03 | 0.00 | 63 | 1013.2 |
| 20260507083522 | 20 | 26 | 1.6 | 3.2 | 0.00 | 0.03 | 0.00 | 66 | 1013.2 |
| 20260507082550 | 20 | 306 | 3.2 | 4.8 | 0.00 | 0.05 | 0.00 | 65 | 1013.1 |
| 20260507081522 | 20 | 335 | 1.6 | 3.2 | 0.00 | 0.05 | 0.00 | 65 | 1013.0 |
| 20260507080550 | 20 | 323 | 3.2 | 4.8 | 0.00 | 0.08 | 0.00 | 67 | 1013.1 |
| 20260507075523 | 19 | 297 | 1.6 | 1.6 | 0.00 | 0.08 | 0.00 | 66 | 1013.1 |
| 20260507074530 | 18 | 322 | 1.6 | 4.8 | 0.00 | 0.08 | 0.00 | 68 | 1013.1 |
| 20260507073522 | 18 | 287 | 1.6 | 3.2 | 0.00 | 0.08 | 0.00 | 70 | 1013.2 |
| 20260507072531 | 17 | 222 | 1.6 | 3.2 | 0.00 | 0.08 | 0.00 | 72 | 1012.9 |
| 20260507071526 | 17 | 196 | 3.2 | 4.8 | 0.00 | 0.08 | 0.00 | 72 | 1012.9 |
| 20260507070610 | 17 | 244 | 1.6 | 3.2 | 0.00 | 0.08 | 0.00 | 71 | 1012.9 |
| 20260507065522 | 17 | 221 | 1.6 | 4.8 | 0.00 | 0.10 | 0.00 | 71 | 1012.9 |
| 20260507064530 | 17 | 269 | 0.0 | 1.6 | 0.00 | 0.10 | 0.00 | 72 | 1012.6 |
| 20260507063522 | 17 | 258 | 1.6 | 3.2 | 0.00 | 0.13 | 0.00 | 73 | 1012.7 |
| 20260507062530 | 16 | 254 | 0.0 | 1.6 | 0.00 | 0.15 | 0.00 | 79 | 1012.5 |
| 20260507061522 | 16 | 206 | 1.6 | 1.6 | 0.00 | 0.15 | 0.00 | 85 | 1012.5 |
| 20260507060530 | 15 | 222 | 1.6 | 3.2 | 0.00 | 0.15 | 0.00 | 85 | 1012.4 |
| 20260507055522 | 15 | 0.0 | 0.0 | 0.00 | 0.15 | 0.00 | 87 | 1012.4 | |
| 20260507054531 | 15 | 0.0 | 0.0 | 0.00 | 0.15 | 0.00 | 88 | 1012.4 | |
| 20260507053524 | 14 | 0.0 | 0.0 | 0.00 | 0.15 | 0.00 | 89 | 1012.0 | |
| 20260507050723 | 11 | 202 | 1.6 | 1.6 | 0.00 | 0.28 | 0.00 | 94 | 1011.8 |
| 20260507042846 | 10 | 0.0 | 0.0 | 0.00 | 0.69 | 0.00 | 95 | 1011.4 | |
| 20260507041839 | 10 | 228 | 1.6 | 1.6 | 0.00 | 0.71 | 0.00 | 95 | 1011.5 |
| 20260507040827 | 10 | 0.0 | 0.0 | 0.00 | 0.74 | 0.00 | 95 | 1011.2 | |
| 20260507035818 | 10 | 0.0 | 0.0 | 0.00 | 0.74 | 0.00 | 94 | 1011.3 | |
| 20260507034826 | 10 | 0.0 | 0.0 | 0.00 | 0.74 | 0.00 | 94 | 1011.1 | |
| 20260507033818 | 10 | 0.0 | 0.0 | 0.00 | 0.74 | 0.00 | 93 | 1011.1 | |
| 20260507032826 | 10 | 0.0 | 0.0 | 0.00 | 0.74 | 0.00 | 93 | 1011.1 | |
| 20260507031838 | 10 | 0.0 | 0.0 | 0.00 | 0.76 | 0.00 | 93 | 1011.0 | |
| 20260507021732 | 11 | 0.0 | 0.0 | 0.00 | 0.86 | 0.00 | 90 | 1011.0 | |
| 20260507020722 | 12 | 0.0 | 0.0 | 0.00 | 0.94 | 0.00 | 88 | 1011.2 | |
| 20260507020258 | 12 | 0.0 | 0.0 | 0.00 | 0.99 | 0.00 | 88 | 1011.1 | |
| 20260507015818 | 12 | 0.0 | 0.0 | 0.00 | 1.02 | 0.00 | 87 | 1011.1 | |
| 20260507015018 | 12 | 0.0 | 0.0 | 0.00 | 1.12 | 0.00 | 87 | 1011.0 | |
| 20260507014638 | 12 | 0.0 | 0.0 | 0.00 | 1.17 | 0.00 | 87 | 1010.9 | |
| 20260507013626 | 12 | 193 | 3.2 | 3.2 | 0.00 | 1.22 | 0.00 | 87 | 1011.0 |
| 20260507012618 | 12 | 203 | 1.6 | 1.6 | 0.00 | 1.22 | 0.00 | 87 | 1010.9 |
| 20260507011646 | 12 | 213 | 3.2 | 4.8 | 0.00 | 1.24 | 0.00 | 86 | 1010.6 |
| 20260507010531 | 13 | 235 | 1.6 | 1.6 | 0.00 | 1.24 | 0.00 | 85 | 1010.6 |
| 20260507005439 | 13 | 235 | 0.0 | 1.6 | 0.00 | 1.24 | 0.00 | 84 | 1010.5 |
| 20260507004931 | 13 | 235 | 0.0 | 1.6 | 0.00 | 1.24 | 0.00 | 84 | 1010.6 |
| 20260507002426 | 13 | 235 | 0.0 | 1.6 | 0.00 | 1.24 | 0.00 | 82 | 1010.7 |
| 20260507000427 | 13 | 0.0 | 0.0 | 0.00 | 1.24 | 0.00 | 79 | 1010.6 | |
| 20260506235418 | 14 | 221 | 1.6 | 1.6 | 0.00 | 1.24 | 0.00 | 78 | 1010.8 |
| 20260506234427 | 13 | 219 | 3.2 | 3.2 | 0.00 | 1.24 | 0.00 | 79 | 1010.7 |
| 20260506233419 | 13 | 219 | 1.6 | 3.2 | 0.00 | 1.24 | 0.00 | 79 | 1010.6 |
| 20260506232446 | 14 | 238 | 1.6 | 1.6 | 0.00 | 1.24 | 0.00 | 78 | 1010.7 |
| 20260506231419 | 14 | 228 | 0.0 | 1.6 | 0.00 | 1.24 | 0.00 | 77 | 1010.8 |
| 20260506230426 | 14 | 222 | 4.8 | 6.4 | 0.00 | 1.24 | 0.00 | 77 | 1010.6 |
| 20260506225419 | 13 | 219 | 6.4 | 9.7 | 0.00 | 1.24 | 0.00 | 80 | 1010.6 |